Ladd AAF Airfield
PAFB : now visible

Airfield :











YOU CAN JOIN US ON...

 
LOGIN :

Register | Disclaimer

   EN    FR    IT 

 









Legend :    VFR   Marginal VFR   IFR   Intensive IFR   Very Intensive IFR
Visi :
Ceiling :
>= 8 km
>= 3000ft
5 to 8 km
1000 to 3000 ft
1500m to 5 km
500 to 1000 ft
800 to 1500m
200 to 500 ft
< 800m
< 200 ft
Symbols :   Thunderstorms  Fog  Heavy snow  Heavy precipitations  Wind > 20 kt






- Airport Elevation : 454 ft
- IATA code : FBK


PAFB - Ladd AAF

CURRENT METAR :
  • 300458Z 30004KT 10SM OVC032 M10/M12 A2994 RMK AO2A SLP150 T11021123

EXPIRED METARs :
  • 300358Z 29005KT 10SM SCT024 OVC032 M09/M12 A2995 RMK AO2A SNE05 SLP153 P0000 T10931123
  • 300325Z 31005KT 10SM SCT021 OVC032 M09/M12 A2995 RMK AO2A SNE05 SLP153
  • 300310Z 31004KT 10SM BKN022 OVC032 M09/M12 A2995 RMK AO2A SNE05 SLP153
  • 300258Z 31005KT 9SM -SN BKN023 OVC031 M09/M12 A2996 RMK AO2A SNE06SNB08E28SNB41E51SNB54 SLP156 P0000 60000 T10911121 57009
  • 300241Z 31005KT 10SM -SN BKN021 OVC032 M09/M12 A2996 RMK AO2A SNE06SNB08E28SNB41 SLP156
  • 300223Z 30005KT 10SM -SN BKN019 OVC034 M09/M12 A2996 RMK AO2A SNE06SNB08 CIG 019V024 SLP156
  • 300213Z 30005KT 9SM -SN SCT018 BKN024 OVC033 M09/M12 A2996 RMK AO2A SNE06SNB08 CIG 024V034 BKN V SCT SLP156
  • 300208Z 31004KT 8SM -SN FEW016 BKN023 OVC034 M09/M12 A2996 RMK AO2A SNE06SNB08 SLP156

TAF TAF PAFB
Valid from the 29 at 22:00 until the 31 at 04:00 UTC


292215Z 2922/3104 VRB03KT 8000 -SN BR SCT020 SCT025 OVC030 620307 QNH2991INS
TEMPO 2922/3002 9999 NSW BKN020 620208
BECMG 3004/3005 30006KT 9999 VCSH SCT010 BKN015 OVC025 620157 QNH2989INS
BECMG 3010/3011 26006KT 9999 NSW SCT010 OVC015 620154 QNH2992INS TXM06/3000Z TNM16/3016Z
PAZA FIR / North America



MET'MAP, your aeronautical weather chart ! - Copyright ORBIFLY December 2007 - Disclaimer

ORBIFLY MET'MAP TEAM :

Programming & Development : Alexandra Zaïnal
Concept & original design : Baudouin d'Aumeries
Assistance for programming : Marc-Olivier Méhu
Technical & hardware support : Manuel Goepfert

Contact : metmap@orbifly.com




SOURCES & CREDITS :

   NOAA       Earth
Advisory